sensor_id;sensor_type;location;lat;lon;timestamp;pressure;altitude;pressure_sealevel;temperature;humidity
31911;BME280;18457;52.432;16.914;2022-11-15T00:00:41;100683.04;;;6.48;100.00
31911;BME280;18457;52.432;16.914;2022-11-15T00:03:33;100681.58;;;6.55;99.99
31911;BME280;18457;52.432;16.914;2022-11-15T00:06:24;100679.98;;;6.52;99.93
31911;BME280;18457;52.432;16.914;2022-11-15T00:09:15;100676.02;;;6.53;99.97
31911;BME280;18457;52.432;16.914;2022-11-15T00:12:06;100671.88;;;6.61;99.87
31911;BME280;18457;52.432;16.914;2022-11-15T00:14:57;100673.31;;;6.57;99.86
31911;BME280;18457;52.432;16.914;2022-11-15T00:17:51;100678.91;;;6.47;100.00
31911;BME280;18457;52.432;16.914;2022-11-15T00:20:41;100669.19;;;6.57;99.90
31911;BME280;18457;52.432;16.914;2022-11-15T00:23:32;100664.70;;;6.58;99.87
31911;BME280;18457;52.432;16.914;2022-11-15T00:26:23;100665.05;;;6.61;99.87
31911;BME280;18457;52.432;16.914;2022-11-15T00:29:13;100660.77;;;6.57;99.86
31911;BME280;18457;52.432;16.914;2022-11-15T00:32:03;100658.80;;;6.55;99.82
31911;BME280;18457;52.432;16.914;2022-11-15T00:34:54;100655.57;;;6.53;100.00
31911;BME280;18457;52.432;16.914;2022-11-15T00:37:45;100654.88;;;6.45;99.94
31911;BME280;18457;52.432;16.914;2022-11-15T00:40:37;100653.95;;;6.49;100.00
31911;BME280;18457;52.432;16.914;2022-11-15T00:43:28;100659.02;;;6.45;100.00
31911;BME280;18457;52.432;16.914;2022-11-15T00:46:20;100658.09;;;6.50;100.00
31911;BME280;18457;52.432;16.914;2022-11-15T00:49:11;100655.59;;;6.46;100.00
31911;BME280;18457;52.432;16.914;2022-11-15T00:52:03;100651.79;;;6.56;99.93
31911;BME280;18457;52.432;16.914;2022-11-15T00:54:55;100655.23;;;6.44;100.00
31911;BME280;18457;52.432;16.914;2022-11-15T00:57:47;100653.04;;;6.55;100.00
31911;BME280;18457;52.432;16.914;2022-11-15T01:00:38;100657.69;;;6.62;99.76
31911;BME280;18457;52.432;16.914;2022-11-15T01:03:33;100654.48;;;6.57;99.90
31911;BME280;18457;52.432;16.914;2022-11-15T01:06:24;100654.46;;;6.62;99.69
31911;BME280;18457;52.432;16.914;2022-11-15T01:09:16;100650.50;;;6.63;99.48
31911;BME280;18457;52.432;16.914;2022-11-15T01:12:07;100649.80;;;6.57;99.74
31911;BME280;18457;52.432;16.914;2022-11-15T01:14:59;100643.21;;;6.44;100.00
31911;BME280;18457;52.432;16.914;2022-11-15T01:17:50;100636.73;;;6.53;100.00
31911;BME280;18457;52.432;16.914;2022-11-15T01:20:42;100627.04;;;6.53;99.97
31911;BME280;18457;52.432;16.914;2022-11-15T01:23:34;100625.60;;;6.53;100.00
31911;BME280;18457;52.432;16.914;2022-11-15T01:26:25;100622.55;;;6.55;100.00
31911;BME280;18457;52.432;16.914;2022-11-15T01:29:17;100620.56;;;6.56;99.96
31911;BME280;18457;52.432;16.914;2022-11-15T01:32:10;100618.60;;;6.50;100.00
31911;BME280;18457;52.432;16.914;2022-11-15T01:35:03;100613.20;;;6.55;100.00
31911;BME280;18457;52.432;16.914;2022-11-15T01:37:55;100614.79;;;6.62;99.75
31911;BME280;18457;52.432;16.914;2022-11-15T01:40:46;100611.54;;;6.64;99.35
31911;BME280;18457;52.432;16.914;2022-11-15T01:43:38;100609.45;;;6.50;99.85
31911;BME280;18457;52.432;16.914;2022-11-15T01:46:33;100606.02;;;6.55;100.00
31911;BME280;18457;52.432;16.914;2022-11-15T01:49:25;100608.52;;;6.59;99.71
31911;BME280;18457;52.432;16.914;2022-11-15T01:52:21;100600.65;;;6.55;99.68
31911;BME280;18457;52.432;16.914;2022-11-15T01:55:18;100595.25;;;6.55;100.00
31911;BME280;18457;52.432;16.914;2022-11-15T01:58:10;100592.39;;;6.54;100.00
31911;BME280;18457;52.432;16.914;2022-11-15T02:01:00;100587.02;;;6.49;100.00
31911;BME280;18457;52.432;16.914;2022-11-15T02:03:54;100587.61;;;6.41;100.00
31911;BME280;18457;52.432;16.914;2022-11-15T02:06:48;100587.93;;;6.48;100.00
31911;BME280;18457;52.432;16.914;2022-11-15T02:09:41;100582.21;;;6.43;100.00
31911;BME280;18457;52.432;16.914;2022-11-15T02:12:34;100582.38;;;6.46;100.00
31911;BME280;18457;52.432;16.914;2022-11-15T02:15:29;100584.00;;;6.42;100.00
31911;BME280;18457;52.432;16.914;2022-11-15T02:18:28;100580.95;;;6.45;100.00
31911;BME280;18457;52.432;16.914;2022-11-15T02:21:30;100577.56;;;6.40;99.98
31911;BME280;18457;52.432;16.914;2022-11-15T02:31:05;100576.27;;;6.46;99.30
31911;BME280;18457;52.432;16.914;2022-11-15T02:34:08;100573.61;;;6.41;99.30
31911;BME280;18457;52.432;16.914;2022-11-15T02:37:07;100574.84;;;6.47;99.56
31911;BME280;18457;52.432;16.914;2022-11-15T02:40:10;100572.00;;;6.39;99.48
31911;BME280;18457;52.432;16.914;2022-11-15T02:43:06;100573.09;;;6.33;99.92
31911;BME280;18457;52.432;16.914;2022-11-15T02:46:19;100571.72;;;6.20;100.00
31911;BME280;18457;52.432;16.914;2022-11-15T02:49:34;100566.86;;;6.23;100.00
31911;BME280;18457;52.432;16.914;2022-11-15T02:52:27;100560.96;;;6.21;100.00
31911;BME280;18457;52.432;16.914;2022-11-15T02:55:38;100559.11;;;6.32;100.00
31911;BME280;18457;52.432;16.914;2022-11-15T02:58:50;100563.80;;;6.29;99.82
31911;BME280;18457;52.432;16.914;2022-11-15T03:01:46;100556.60;;;6.34;99.30
31911;BME280;18457;52.432;16.914;2022-11-15T03:04:46;100549.25;;;6.32;99.25
31911;BME280;18457;52.432;16.914;2022-11-15T03:07:47;100544.83;;;6.18;99.98
31911;BME280;18457;52.432;16.914;2022-11-15T03:10:55;100548.65;;;6.04;100.00
31911;BME280;18457;52.432;16.914;2022-11-15T03:13:55;100548.05;;;6.17;100.00
31911;BME280;18457;52.432;16.914;2022-11-15T03:16:51;100546.40;;;6.27;100.00
31911;BME280;18457;52.432;16.914;2022-11-15T03:19:48;100542.66;;;6.20;100.00
31911;BME280;18457;52.432;16.914;2022-11-15T03:22:43;100538.92;;;6.14;100.00
31911;BME280;18457;52.432;16.914;2022-11-15T03:25:36;100534.99;;;6.09;100.00
31911;BME280;18457;52.432;16.914;2022-11-15T03:28:32;100530.91;;;6.01;100.00
31911;BME280;18457;52.432;16.914;2022-11-15T03:31:25;100525.00;;;5.96;100.00
31911;BME280;18457;52.432;16.914;2022-11-15T03:34:43;100525.53;;;5.99;100.00
31911;BME280;18457;52.432;16.914;2022-11-15T03:37:40;100534.11;;;6.05;100.00
31911;BME280;18457;52.432;16.914;2022-11-15T03:40:38;100525.02;;;5.93;100.00
31911;BME280;18457;52.432;16.914;2022-11-15T03:43:36;100521.05;;;5.98;100.00
31911;BME280;18457;52.432;16.914;2022-11-15T03:46:33;100520.71;;;5.96;99.99
31911;BME280;18457;52.432;16.914;2022-11-15T03:49:31;100526.45;;;5.94;100.00
31911;BME280;18457;52.432;16.914;2022-11-15T03:52:24;100519.47;;;5.93;100.00
31911;BME280;18457;52.432;16.914;2022-11-15T03:55:17;100521.97;;;5.91;100.00
31911;BME280;18457;52.432;16.914;2022-11-15T03:58:09;100520.90;;;5.90;100.00
31911;BME280;18457;52.432;16.914;2022-11-15T04:01:00;100524.86;;;5.89;100.00
31911;BME280;18457;52.432;16.914;2022-11-15T04:03:51;100522.86;;;5.87;100.00
31911;BME280;18457;52.432;16.914;2022-11-15T04:06:44;100525.20;;;5.88;100.00
31911;BME280;18457;52.432;16.914;2022-11-15T04:09:35;100528.25;;;5.89;100.00
31911;BME280;18457;52.432;16.914;2022-11-15T04:12:48;100521.45;;;5.87;100.00
31911;BME280;18457;52.432;16.914;2022-11-15T04:15:38;100523.41;;;5.86;100.00
31911;BME280;18457;52.432;16.914;2022-11-15T04:18:30;100519.86;;;5.68;100.00
31911;BME280;18457;52.432;16.914;2022-11-15T04:21:22;100508.02;;;5.78;100.00
31911;BME280;18457;52.432;16.914;2022-11-15T04:24:30;100505.49;;;5.85;99.98
31911;BME280;18457;52.432;16.914;2022-11-15T04:27:22;100510.17;;;5.78;99.98
31911;BME280;18457;52.432;16.914;2022-11-15T04:30:14;100506.75;;;5.84;99.77
31911;BME280;18457;52.432;16.914;2022-11-15T04:33:07;100505.13;;;5.84;99.56
31911;BME280;18457;52.432;16.914;2022-11-15T04:35:58;100507.47;;;5.76;99.89
31911;BME280;18457;52.432;16.914;2022-11-15T04:39:07;100510.70;;;5.83;99.57
31911;BME280;18457;52.432;16.914;2022-11-15T04:41:59;100503.00;;;5.79;99.67
31911;BME280;18457;52.432;16.914;2022-11-15T04:44:50;100504.79;;;5.72;100.00
31911;BME280;18457;52.432;16.914;2022-11-15T04:47:40;100509.43;;;5.78;100.00
31911;BME280;18457;52.432;16.914;2022-11-15T04:50:33;100512.48;;;5.87;99.91
31911;BME280;18457;52.432;16.914;2022-11-15T04:53:24;100508.90;;;5.87;99.64
31911;BME280;18457;52.432;16.914;2022-11-15T04:56:14;100502.45;;;5.88;99.63
31911;BME280;18457;52.432;16.914;2022-11-15T04:59:06;100500.61;;;5.95;99.92
31911;BME280;18457;52.432;16.914;2022-11-15T05:01:57;100493.48;;;5.88;99.97
31911;BME280;18457;52.432;16.914;2022-11-15T05:04:48;100491.30;;;5.94;99.95
31911;BME280;18457;52.432;16.914;2022-11-15T05:07:39;100493.65;;;5.90;99.98
31911;BME280;18457;52.432;16.914;2022-11-15T05:10:30;100492.92;;;5.90;100.00
31911;BME280;18457;52.432;16.914;2022-11-15T05:13:20;100488.83;;;5.89;100.00
31911;BME280;18457;52.432;16.914;2022-11-15T05:16:12;100478.23;;;5.91;100.00
31911;BME280;18457;52.432;16.914;2022-11-15T05:19:03;100477.15;;;5.92;99.97
31911;BME280;18457;52.432;16.914;2022-11-15T05:21:54;100475.52;;;5.96;100.00
31911;BME280;18457;52.432;16.914;2022-11-15T05:24:44;100477.32;;;5.93;100.00
31911;BME280;18457;52.432;16.914;2022-11-15T05:27:35;100481.83;;;5.86;100.00
31911;BME280;18457;52.432;16.914;2022-11-15T05:30:26;100481.12;;;5.80;100.00
31911;BME280;18457;52.432;16.914;2022-11-15T05:33:16;100477.33;;;5.94;100.00
31911;BME280;18457;52.432;16.914;2022-11-15T05:36:12;100472.14;;;5.89;100.00
31911;BME280;18457;52.432;16.914;2022-11-15T05:39:05;100464.65;;;5.71;100.00
31911;BME280;18457;52.432;16.914;2022-11-15T05:42:01;100472.00;;;5.72;100.00
31911;BME280;18457;52.432;16.914;2022-11-15T05:44:55;100478.98;;;5.78;100.00
31911;BME280;18457;52.432;16.914;2022-11-15T05:47:47;100480.94;;;5.74;100.00
31911;BME280;18457;52.432;16.914;2022-11-15T05:50:41;100484.68;;;5.81;100.00
31911;BME280;18457;52.432;16.914;2022-11-15T05:53:32;100485.60;;;5.86;100.00
31911;BME280;18457;52.432;16.914;2022-11-15T05:56:23;100487.38;;;5.87;100.00
31911;BME280;18457;52.432;16.914;2022-11-15T05:59:14;100484.52;;;5.84;100.00
31911;BME280;18457;52.432;16.914;2022-11-15T06:02:04;100482.37;;;5.79;100.00
31911;BME280;18457;52.432;16.914;2022-11-15T06:04:55;100478.96;;;5.83;100.00
31911;BME280;18457;52.432;16.914;2022-11-15T06:07:45;100480.07;;;5.70;100.00
31911;BME280;18457;52.432;16.914;2022-11-15T06:10:36;100485.42;;;5.83;100.00
31911;BME280;18457;52.432;16.914;2022-11-15T06:13:26;100488.46;;;5.76;100.00
31911;BME280;18457;52.432;16.914;2022-11-15T06:16:17;100486.00;;;5.64;100.00
31911;BME280;18457;52.432;16.914;2022-11-15T06:19:08;100484.16;;;5.76;100.00
31911;BME280;18457;52.432;16.914;2022-11-15T06:22:00;100485.78;;;5.76;100.00
31911;BME280;18457;52.432;16.914;2022-11-15T06:24:51;100490.95;;;5.84;100.00
31911;BME280;18457;52.432;16.914;2022-11-15T06:27:42;100480.05;;;5.78;100.00
31911;BME280;18457;52.432;16.914;2022-11-15T06:30:32;100483.98;;;5.79;100.00
31911;BME280;18457;52.432;16.914;2022-11-15T06:33:23;100482.91;;;5.80;100.00
31911;BME280;18457;52.432;16.914;2022-11-15T06:36:15;100485.78;;;5.77;100.00
31911;BME280;18457;52.432;16.914;2022-11-15T06:39:07;100491.16;;;5.82;100.00
31911;BME280;18457;52.432;16.914;2022-11-15T06:41:57;100489.55;;;5.75;100.00
31911;BME280;18457;52.432;16.914;2022-11-15T06:44:47;100494.73;;;5.77;100.00
31911;BME280;18457;52.432;16.914;2022-11-15T06:47:45;100496.35;;;5.82;100.00
31911;BME280;18457;52.432;16.914;2022-11-15T06:50:36;100491.20;;;5.66;100.00
31911;BME280;18457;52.432;16.914;2022-11-15T06:53:27;100495.86;;;5.59;100.00
31911;BME280;18457;52.432;16.914;2022-11-15T06:56:18;100501.95;;;5.63;100.00
31911;BME280;18457;52.432;16.914;2022-11-15T06:59:09;100507.64;;;5.79;100.00
31911;BME280;18457;52.432;16.914;2022-11-15T07:02:00;100497.42;;;5.86;100.00
31911;BME280;18457;52.432;16.914;2022-11-15T07:04:50;100498.68;;;5.83;100.00
31911;BME280;18457;52.432;16.914;2022-11-15T07:07:41;100498.33;;;5.82;100.00
31911;BME280;18457;52.432;16.914;2022-11-15T07:10:31;100499.96;;;5.70;100.00
31911;BME280;18457;52.432;16.914;2022-11-15T07:13:25;100498.53;;;5.68;100.00
31911;BME280;18457;52.432;16.914;2022-11-15T07:16:16;100497.80;;;5.74;100.00
31911;BME280;18457;52.432;16.914;2022-11-15T07:19:08;100499.94;;;5.74;100.00
31911;BME280;18457;52.432;16.914;2022-11-15T07:21:58;100496.00;;;5.77;100.00
31911;BME280;18457;52.432;16.914;2022-11-15T07:24:49;100496.71;;;5.84;100.00
31911;BME280;18457;52.432;16.914;2022-11-15T07:27:39;100501.73;;;5.87;100.00
31911;BME280;18457;52.432;16.914;2022-11-15T07:30:30;100498.15;;;5.83;100.00
31911;BME280;18457;52.432;16.914;2022-11-15T07:33:20;100500.29;;;5.87;99.85
31911;BME280;18457;52.432;16.914;2022-11-15T07:36:11;100507.47;;;5.86;100.00
31911;BME280;18457;52.432;16.914;2022-11-15T07:39:02;100508.53;;;5.85;99.94
31911;BME280;18457;52.432;16.914;2022-11-15T07:41:52;100500.28;;;5.88;100.00
31911;BME280;18457;52.432;16.914;2022-11-15T07:45:04;100500.63;;;5.95;100.00
31911;BME280;18457;52.432;16.914;2022-11-15T07:47:55;100497.05;;;5.93;100.00
31911;BME280;18457;52.432;16.914;2022-11-15T07:50:45;100489.67;;;6.01;99.98
31911;BME280;18457;52.432;16.914;2022-11-15T07:53:36;100480.85;;;6.06;99.98
31911;BME280;18457;52.432;16.914;2022-11-15T07:56:26;100490.17;;;6.08;99.98
31911;BME280;18457;52.432;16.914;2022-11-15T07:59:16;100490.52;;;6.11;98.98
31911;BME280;18457;52.432;16.914;2022-11-15T08:02:10;100489.95;;;6.15;98.56
31911;BME280;18457;52.432;16.914;2022-11-15T08:05:00;100488.14;;;6.19;98.76
31911;BME280;18457;52.432;16.914;2022-11-15T08:07:50;100488.11;;;6.27;98.37
31911;BME280;18457;52.432;16.914;2022-11-15T08:10:41;100488.36;;;6.11;98.15
31911;BME280;18457;52.432;16.914;2022-11-15T08:13:31;100486.75;;;6.09;98.38
31911;BME280;18457;52.432;16.914;2022-11-15T08:16:23;100482.29;;;6.08;98.63
31911;BME280;18457;52.432;16.914;2022-11-15T08:19:13;100473.83;;;6.13;98.74
31911;BME280;18457;52.432;16.914;2022-11-15T08:22:04;100471.23;;;6.27;98.33
31911;BME280;18457;52.432;16.914;2022-11-15T08:24:54;100470.88;;;6.30;97.98
31911;BME280;18457;52.432;16.914;2022-11-15T08:27:45;100473.91;;;6.29;98.15
31911;BME280;18457;52.432;16.914;2022-11-15T08:30:38;100474.79;;;6.31;98.50
31911;BME280;18457;52.432;16.914;2022-11-15T08:33:31;100473.52;;;6.36;98.38
31911;BME280;18457;52.432;16.914;2022-11-15T08:36:23;100462.55;;;6.40;98.48
31911;BME280;18457;52.432;16.914;2022-11-15T08:39:14;100458.05;;;6.42;98.23
31911;BME280;18457;52.432;16.914;2022-11-15T08:42:04;100455.55;;;6.41;98.29
31911;BME280;18457;52.432;16.914;2022-11-15T08:44:54;100457.86;;;6.45;98.31
31911;BME280;18457;52.432;16.914;2022-11-15T08:47:45;100453.48;;;6.29;99.44
31911;BME280;18457;52.432;16.914;2022-11-15T08:50:42;100450.98;;;6.24;100.00
31911;BME280;18457;52.432;16.914;2022-11-15T08:53:33;100446.80;;;6.32;100.00
31911;BME280;18457;52.432;16.914;2022-11-15T08:56:24;100446.67;;;6.26;100.00
31911;BME280;18457;52.432;16.914;2022-11-15T08:59:14;100447.77;;;6.23;100.00
31911;BME280;18457;52.432;16.914;2022-11-15T09:02:05;100447.63;;;6.44;99.99
31911;BME280;18457;52.432;16.914;2022-11-15T09:04:55;100442.28;;;6.39;100.00
31911;BME280;18457;52.432;16.914;2022-11-15T09:07:46;100436.66;;;6.48;99.98
31911;BME280;18457;52.432;16.914;2022-11-15T09:10:36;100441.66;;;6.51;99.94
31911;BME280;18457;52.432;16.914;2022-11-15T09:13:27;100435.35;;;6.54;99.56
31911;BME280;18457;52.432;16.914;2022-11-15T09:16:19;100436.54;;;6.64;98.53
31911;BME280;18457;52.432;16.914;2022-11-15T09:19:09;100436.43;;;6.56;99.30
31911;BME280;18457;52.432;16.914;2022-11-15T09:22:01;100436.39;;;6.62;99.91
31911;BME280;18457;52.432;16.914;2022-11-15T09:24:51;100440.23;;;6.73;98.81
31911;BME280;18457;52.432;16.914;2022-11-15T09:27:42;100445.33;;;6.64;98.08
31911;BME280;18457;52.432;16.914;2022-11-15T09:30:34;100438.83;;;6.70;98.28
31911;BME280;18457;52.432;16.914;2022-11-15T09:33:24;100439.17;;;6.73;98.63
31911;BME280;18457;52.432;16.914;2022-11-15T09:36:15;100434.59;;;6.81;98.13
31911;BME280;18457;52.432;16.914;2022-11-15T09:39:06;100435.66;;;6.83;97.85
31911;BME280;18457;52.432;16.914;2022-11-15T09:42:12;100431.52;;;6.87;97.73
31911;BME280;18457;52.432;16.914;2022-11-15T09:45:18;100431.25;;;6.95;97.85
31911;BME280;18457;52.432;16.914;2022-11-15T09:51:32;100426.80;;;6.90;98.46
31911;BME280;18457;52.432;16.914;2022-11-15T09:54:23;100427.23;;;6.83;99.04
31911;BME280;18457;52.432;16.914;2022-11-15T09:57:20;100427.23;;;6.84;98.68
31911;BME280;18457;52.432;16.914;2022-11-15T10:00:00;100423.88;;;6.75;99.65
31911;BME280;18457;52.432;16.914;2022-11-15T10:03:12;100417.08;;;6.94;98.90
31911;BME280;18457;52.432;16.914;2022-11-15T10:05:46;100409.88;;;6.96;98.76
31911;BME280;18457;52.432;16.914;2022-11-15T10:08:33;100417.08;;;6.93;98.80
31911;BME280;18457;52.432;16.914;2022-11-15T10:11:10;100415.95;;;6.99;98.25
31911;BME280;18457;52.432;16.914;2022-11-15T10:14:09;100407.91;;;7.13;97.77
31911;BME280;18457;52.432;16.914;2022-11-15T10:17:00;100408.92;;;7.02;98.17
31911;BME280;18457;52.432;16.914;2022-11-15T10:19:38;100411.33;;;7.12;97.71
31911;BME280;18457;52.432;16.914;2022-11-15T10:22:28;100408.73;;;7.19;97.44
31911;BME280;18457;52.432;16.914;2022-11-15T10:25:17;100414.46;;;7.22;97.64
31911;BME280;18457;52.432;16.914;2022-11-15T10:27:54;100412.94;;;7.13;98.24
31911;BME280;18457;52.432;16.914;2022-11-15T10:30:34;100402.56;;;7.26;97.70
31911;BME280;18457;52.432;16.914;2022-11-15T10:33:20;100407.29;;;7.37;97.11
31911;BME280;18457;52.432;16.914;2022-11-15T10:36:15;100403.82;;;7.41;96.14
31911;BME280;18457;52.432;16.914;2022-11-15T10:38:55;100400.26;;;7.39;95.95
31911;BME280;18457;52.432;16.914;2022-11-15T10:41:37;100399.73;;;7.40;96.02
31911;BME280;18457;52.432;16.914;2022-11-15T10:44:17;100403.08;;;7.44;96.13
31911;BME280;18457;52.432;16.914;2022-11-15T10:47:03;100403.77;;;7.47;95.94
31911;BME280;18457;52.432;16.914;2022-11-15T10:49:35;100399.42;;;7.34;96.61
31911;BME280;18457;52.432;16.914;2022-11-15T10:52:16;100392.92;;;7.37;96.63
31911;BME280;18457;52.432;16.914;2022-11-15T10:54:52;100396.66;;;7.23;97.99
31911;BME280;18457;52.432;16.914;2022-11-15T10:57:28;100393.55;;;7.28;98.68
31911;BME280;18457;52.432;16.914;2022-11-15T11:00:03;100392.31;;;7.26;98.27
31911;BME280;18457;52.432;16.914;2022-11-15T11:02:38;100388.52;;;7.28;98.21
31911;BME280;18457;52.432;16.914;2022-11-15T11:08:25;100383.91;;;7.55;97.42
31911;BME280;18457;52.432;16.914;2022-11-15T11:10:58;100378.59;;;7.62;96.86
31911;BME280;18457;52.432;16.914;2022-11-15T11:13:35;100372.09;;;7.78;96.25
31911;BME280;18457;52.432;16.914;2022-11-15T11:19:18;100369.09;;;7.61;97.32
31911;BME280;18457;52.432;16.914;2022-11-15T11:21:58;100368.95;;;7.57;98.09
31911;BME280;18457;52.432;16.914;2022-11-15T11:24:38;100359.16;;;7.63;97.48
31911;BME280;18457;52.432;16.914;2022-11-15T11:27:24;100354.23;;;7.26;99.21
31911;BME280;18457;52.432;16.914;2022-11-15T11:30:08;100350.48;;;7.53;98.46
31911;BME280;18457;52.432;16.914;2022-11-15T11:33:00;100350.69;;;7.36;98.68
31911;BME280;18457;52.432;16.914;2022-11-15T11:35:43;100348.25;;;6.98;99.95
31911;BME280;18457;52.432;16.914;2022-11-15T11:38:28;100342.96;;;7.05;100.00
31911;BME280;18457;52.432;16.914;2022-11-15T11:41:13;100341.30;;;7.25;100.00
31911;BME280;18457;52.432;16.914;2022-11-15T11:43:59;100339.67;;;7.41;99.56
31911;BME280;18457;52.432;16.914;2022-11-15T11:46:44;100331.86;;;7.61;98.70
31911;BME280;18457;52.432;16.914;2022-11-15T11:49:23;100325.70;;;7.66;98.07
31911;BME280;18457;52.432;16.914;2022-11-15T11:52:02;100325.47;;;7.69;98.00
31911;BME280;18457;52.432;16.914;2022-11-15T11:54:42;100322.71;;;7.73;97.74
31911;BME280;18457;52.432;16.914;2022-11-15T11:57:26;100320.27;;;7.80;97.62
31911;BME280;18457;52.432;16.914;2022-11-15T12:00:09;100323.05;;;7.87;97.03
31911;BME280;18457;52.432;16.914;2022-11-15T12:02:49;100323.26;;;7.73;97.31
31911;BME280;18457;52.432;16.914;2022-11-15T12:05:26;100321.27;;;7.71;97.38
31911;BME280;18457;52.432;16.914;2022-11-15T12:08:14;100316.00;;;7.76;97.22
31911;BME280;18457;52.432;16.914;2022-11-15T12:10:56;100310.05;;;7.66;97.72
31911;BME280;18457;52.432;16.914;2022-11-15T12:13:31;100309.42;;;7.58;98.75
31911;BME280;18457;52.432;16.914;2022-11-15T12:16:12;100310.33;;;7.59;98.77
31911;BME280;18457;52.432;16.914;2022-11-15T12:18:50;100311.31;;;7.66;98.50
31911;BME280;18457;52.432;16.914;2022-11-15T12:21:37;100307.42;;;7.74;97.94
31911;BME280;18457;52.432;16.914;2022-11-15T12:24:15;100307.73;;;7.77;97.38
31911;BME280;18457;52.432;16.914;2022-11-15T12:26:51;100302.78;;;7.84;97.19
31911;BME280;18457;52.432;16.914;2022-11-15T12:29:31;100301.24;;;7.78;97.14
31911;BME280;18457;52.432;16.914;2022-11-15T12:32:05;100291.42;;;7.74;97.95
31911;BME280;18457;52.432;16.914;2022-11-15T12:34:48;100293.92;;;7.86;97.50
31911;BME280;18457;52.432;16.914;2022-11-15T12:37:52;100291.91;;;7.89;97.18
31911;BME280;18457;52.432;16.914;2022-11-15T12:40:37;100292.23;;;7.91;97.49
31911;BME280;18457;52.432;16.914;2022-11-15T12:46:22;100294.26;;;7.88;97.51
31911;BME280;18457;52.432;16.914;2022-11-15T12:48:56;100295.50;;;7.89;97.60
31911;BME280;18457;52.432;16.914;2022-11-15T12:57:43;100287.88;;;7.95;97.70
31911;BME280;18457;52.432;16.914;2022-11-15T13:00:44;100284.44;;;7.83;98.63
31911;BME280;18457;52.432;16.914;2022-11-15T13:03:22;100279.71;;;7.87;98.50
31911;BME280;18457;52.432;16.914;2022-11-15T13:06:02;100278.40;;;7.90;98.10
31911;BME280;18457;52.432;16.914;2022-11-15T13:08:51;100273.70;;;7.91;98.01
31911;BME280;18457;52.432;16.914;2022-11-15T13:11:50;100269.90;;;7.93;98.12
31911;BME280;18457;52.432;16.914;2022-11-15T13:14:52;100264.24;;;7.99;97.90
31911;BME280;18457;52.432;16.914;2022-11-15T13:17:36;100259.83;;;7.92;98.40
31911;BME280;18457;52.432;16.914;2022-11-15T13:20:28;100256.17;;;7.97;98.30
31911;BME280;18457;52.432;16.914;2022-11-15T13:23:09;100254.17;;;7.99;97.77
31911;BME280;18457;52.432;16.914;2022-11-15T13:26:10;100251.34;;;7.96;98.04
31911;BME280;18457;52.432;16.914;2022-11-15T13:28:46;100253.24;;;7.88;98.28
31911;BME280;18457;52.432;16.914;2022-11-15T13:31:27;100251.43;;;7.89;98.59
31911;BME280;18457;52.432;16.914;2022-11-15T13:34:02;100247.11;;;7.90;98.65
31911;BME280;18457;52.432;16.914;2022-11-15T13:36:55;100249.42;;;7.92;98.95
31911;BME280;18457;52.432;16.914;2022-11-15T13:39:32;100244.41;;;7.78;99.60
31911;BME280;18457;52.432;16.914;2022-11-15T13:42:10;100246.83;;;7.85;99.80
31911;BME280;18457;52.432;16.914;2022-11-15T13:44:57;100243.70;;;7.91;99.55
31911;BME280;18457;52.432;16.914;2022-11-15T13:47:30;100241.52;;;7.91;99.38
31911;BME280;18457;52.432;16.914;2022-11-15T13:50:02;100240.03;;;7.94;99.07
31911;BME280;18457;52.432;16.914;2022-11-15T13:52:44;100245.38;;;7.86;99.17
31911;BME280;18457;52.432;16.914;2022-11-15T13:55:21;100246.15;;;7.82;99.15
31911;BME280;18457;52.432;16.914;2022-11-15T13:57:55;100251.93;;;7.80;99.17
31911;BME280;18457;52.432;16.914;2022-11-15T14:00:34;100244.88;;;7.84;99.08
31911;BME280;18457;52.432;16.914;2022-11-15T14:03:17;100240.42;;;7.80;99.18
31911;BME280;18457;52.432;16.914;2022-11-15T14:06:05;100238.69;;;7.76;99.50
31911;BME280;18457;52.432;16.914;2022-11-15T14:08:39;100231.31;;;7.76;99.51
31911;BME280;18457;52.432;16.914;2022-11-15T14:11:15;100232.45;;;7.72;99.63
31911;BME280;18457;52.432;16.914;2022-11-15T14:14:08;100232.04;;;7.65;99.99
31911;BME280;18457;52.432;16.914;2022-11-15T14:16:44;100233.02;;;7.71;100.00
31911;BME280;18457;52.432;16.914;2022-11-15T14:19:37;100237.27;;;7.63;100.00
31911;BME280;18457;52.432;16.914;2022-11-15T14:22:20;100233.46;;;7.66;100.00
31911;BME280;18457;52.432;16.914;2022-11-15T14:25:16;100236.06;;;7.60;100.00
31911;BME280;18457;52.432;16.914;2022-11-15T14:28:16;100232.63;;;7.62;100.00
31911;BME280;18457;52.432;16.914;2022-11-15T14:31:02;100230.06;;;7.53;100.00
31911;BME280;18457;52.432;16.914;2022-11-15T14:33:39;100231.67;;;7.53;100.00
31911;BME280;18457;52.432;16.914;2022-11-15T14:36:16;100232.87;;;7.57;100.00
31911;BME280;18457;52.432;16.914;2022-11-15T14:38:49;100229.20;;;7.50;100.00
31911;BME280;18457;52.432;16.914;2022-11-15T14:41:23;100225.42;;;7.51;100.00
31911;BME280;18457;52.432;16.914;2022-11-15T14:43:56;100225.49;;;7.46;100.00
31911;BME280;18457;52.432;16.914;2022-11-15T14:46:28;100219.07;;;7.42;100.00
31911;BME280;18457;52.432;16.914;2022-11-15T14:49:00;100215.32;;;7.41;100.00
31911;BME280;18457;52.432;16.914;2022-11-15T14:51:32;100213.50;;;7.43;100.00
31911;BME280;18457;52.432;16.914;2022-11-15T14:54:04;100216.99;;;7.25;100.00
31911;BME280;18457;52.432;16.914;2022-11-15T14:56:36;100211.07;;;7.24;100.00
31911;BME280;18457;52.432;16.914;2022-11-15T14:59:08;100202.39;;;7.28;100.00
31911;BME280;18457;52.432;16.914;2022-11-15T15:01:40;100200.23;;;7.28;100.00
31911;BME280;18457;52.432;16.914;2022-11-15T15:04:13;100201.08;;;7.19;100.00